Time;durP1;ratioP1;P1;durP2;ratioP2;P2;SDS_P1;SDS_P2;PMS_P1;PMS_P2;Temp;Humidity;BMP_temperature;BMP_pressure;BME280_temperature;BME280_humidity;BME280_pressure;Samples;Min_cycle;Max_cycle;Signal;HPM_P1;HPM_P2
2023/03/14 00:01:48;;;;;;;4.95;1.30;;;11.00;99.90;;;;;;7338567;32;20282;-56
2023/03/14 00:05:50;;;;;;;4.40;1.83;;;11.10;99.90;;;;;;7337056;32;20099;-55
2023/03/14 00:09:52;;;;;;;7.15;1.55;;;11.10;99.90;;;;;;7342527;32;20123;-55
2023/03/14 00:13:54;;;;;;;7.60;1.48;;;11.10;99.90;;;;;;7339752;32;20585;-55
2023/03/14 00:17:55;;;;;;;7.72;1.12;;;11.20;99.90;;;;;;7327187;32;20134;-55
2023/03/14 00:21:57;;;;;;;9.45;1.50;;;11.10;99.90;;;;;;7343755;32;20261;-56
2023/03/14 00:26:05;;;;;;;8.35;1.45;;;11.10;99.90;;;;;;7337231;32;20220;-55
2023/03/14 00:30:10;;;;;;;7.85;1.30;;;11.20;99.90;;;;;;7337026;32;20275;-55
2023/03/14 00:34:11;;;;;;;6.37;1.50;;;11.20;99.90;;;;;;7330971;32;20580;-55
2023/03/14 00:38:13;;;;;;;10.63;1.30;;;11.30;99.90;;;;;;7344562;32;20107;-55
2023/03/14 00:42:15;;;;;;;6.72;1.40;;;11.30;99.90;;;;;;7336444;32;20150;-55
2023/03/14 00:46:17;;;;;;;3.62;0.88;;;10.90;99.90;;;;;;7332767;32;20815;-55
2023/03/14 00:50:18;;;;;;;3.33;0.80;;;10.20;99.90;;;;;;7333186;32;20156;-55
2023/03/14 00:54:21;;;;;;;3.30;0.62;;;9.60;99.90;;;;;;7335444;32;20142;-55
2023/03/14 00:58:22;;;;;;;4.90;0.80;;;9.40;99.90;;;;;;7337695;32;20272;-55
2023/03/14 01:02:24;;;;;;;5.45;1.10;;;9.20;99.90;;;;;;7337236;32;20131;-54
2023/03/14 01:06:28;;;;;;;5.57;0.90;;;9.20;99.90;;;;;;7344169;32;20572;-54
2023/03/14 01:10:30;;;;;;;9.68;1.42;;;9.10;99.90;;;;;;7333212;32;20639;-55
2023/03/14 01:14:32;;;;;;;6.22;1.20;;;9.10;99.90;;;;;;7331997;32;20112;-54
2023/03/14 01:18:35;;;;;;;9.85;1.20;;;9.10;99.90;;;;;;7337721;32;20146;-56
2023/03/14 01:22:39;;;;;;;6.15;1.25;;;9.00;99.90;;;;;;7339616;32;20409;-53
2023/03/14 01:26:41;;;;;;;3.28;0.82;;;9.00;99.90;;;;;;7335381;32;20115;-54
2023/03/14 01:30:42;;;;;;;3.85;0.80;;;8.90;99.90;;;;;;7332115;32;20741;-54
2023/03/14 01:34:44;;;;;;;4.25;0.93;;;8.90;99.90;;;;;;7343000;32;20107;-54
2023/03/14 01:38:46;;;;;;;9.38;0.90;;;8.90;99.90;;;;;;7342003;32;20115;-54
2023/03/14 01:43:04;;;;;;;5.32;1.00;;;8.80;99.90;;;;;;7331522;32;20135;-55
2023/03/14 01:47:06;;;;;;;5.65;1.12;;;8.80;99.90;;;;;;7336438;32;20216;-54
2023/03/14 01:51:17;;;;;;;4.62;0.80;;;8.80;99.90;;;;;;7340347;32;20206;-55
2023/03/14 01:55:23;;;;;;;6.47;1.00;;;8.90;99.90;;;;;;7342346;32;20189;-55
2023/03/14 01:59:26;;;;;;;4.45;0.88;;;8.80;99.90;;;;;;7332951;32;20557;-54
2023/03/14 02:03:30;;;;;;;9.82;1.33;;;8.80;99.90;;;;;;7341511;32;20559;-55
2023/03/14 02:07:35;;;;;;;5.40;1.08;;;8.80;99.90;;;;;;7331145;32;20110;-54
2023/03/14 02:11:36;;;;;;;8.90;1.00;;;8.90;99.90;;;;;;7340758;32;20107;-54
2023/03/14 02:15:39;;;;;;;6.75;1.05;;;8.90;99.90;;;;;;7327504;32;20887;-55
2023/03/14 02:20:04;;;;;;;7.03;1.42;;;8.90;99.90;;;;;;7335464;32;20139;-55
2023/03/14 02:24:31;;;;;;;10.32;1.60;;;9.00;99.90;;;;;;7332157;32;20095;-55
2023/03/14 02:28:33;;;;;;;9.73;1.23;;;9.00;99.90;;;;;;7334143;32;20644;-55
2023/03/14 02:32:37;;;;;;;11.32;1.45;;;9.10;99.90;;;;;;7333049;32;20111;-54
2023/03/14 02:36:39;;;;;;;7.00;1.17;;;9.00;99.90;;;;;;7341931;32;20388;-55
2023/03/14 02:40:40;;;;;;;5.85;1.10;;;9.00;99.90;;;;;;7342834;32;20102;-54
2023/03/14 02:44:59;;;;;;;5.57;1.17;;;9.10;99.90;;;;;;7334489;32;20115;-55
2023/03/14 02:49:11;;;;;;;8.80;1.20;;;9.10;99.90;;;;;;7340942;32;20130;-55
2023/03/14 02:53:18;;;;;;;8.00;1.27;;;9.10;99.90;;;;;;7333711;32;20107;-55
2023/03/14 02:57:20;;;;;;;7.70;1.37;;;9.10;99.90;;;;;;7337389;32;20194;-55
2023/03/14 03:01:21;;;;;;;5.40;1.30;;;9.10;99.90;;;;;;7332715;32;20320;-54
2023/03/14 03:05:23;;;;;;;8.25;1.35;;;9.00;99.90;;;;;;7338085;32;20122;-55
2023/03/14 03:09:25;;;;;;;4.97;1.00;;;9.00;99.90;;;;;;7333758;32;20254;-55
2023/03/14 03:13:27;;;;;;;5.93;1.58;;;9.10;99.90;;;;;;7330757;32;20115;-54
2023/03/14 03:17:28;;;;;;;10.40;1.37;;;9.10;99.90;;;;;;7331200;32;20228;-55
2023/03/14 03:21:30;;;;;;;9.70;1.27;;;9.10;99.90;;;;;;7337174;32;20137;-55
2023/03/14 03:25:32;;;;;;;7.37;1.17;;;9.10;99.90;;;;;;7335217;32;20539;-55
2023/03/14 03:29:34;;;;;;;7.90;1.10;;;9.10;99.90;;;;;;7325817;32;20125;-55
2023/03/14 03:33:36;;;;;;;6.30;0.80;;;9.10;99.90;;;;;;7323207;32;20149;-56
2023/03/14 03:37:38;;;;;;;6.37;1.10;;;9.10;99.90;;;;;;7338663;32;20239;-56
2023/03/14 03:41:40;;;;;;;6.68;1.12;;;9.00;99.90;;;;;;7331255;32;20123;-55
2023/03/14 03:45:41;;;;;;;8.07;1.50;;;9.00;99.90;;;;;;7335018;32;20321;-55
2023/03/14 03:49:43;;;;;;;9.68;1.60;;;9.00;99.90;;;;;;7335250;32;20156;-55
2023/03/14 03:53:45;;;;;;;5.10;0.90;;;8.90;99.90;;;;;;7337626;32;20115;-55
2023/03/14 03:57:46;;;;;;;7.80;1.40;;;8.90;99.90;;;;;;7330133;32;20328;-54
2023/03/14 04:01:48;;;;;;;5.43;0.90;;;8.90;99.90;;;;;;7333929;32;20228;-56
2023/03/14 04:06:06;;;;;;;5.60;0.85;;;8.90;99.90;;;;;;7333918;32;20175;-54
2023/03/14 04:10:08;;;;;;;7.93;1.30;;;8.90;99.90;;;;;;7327975;32;20478;-55
2023/03/14 04:14:10;;;;;;;7.12;1.15;;;8.80;99.90;;;;;;7331089;32;20274;-54
2023/03/14 04:18:12;;;;;;;4.53;0.90;;;8.80;99.90;;;;;;7335161;32;20107;-55
2023/03/14 04:22:13;;;;;;;6.53;1.10;;;8.90;99.90;;;;;;7333168;32;20184;-54
2023/03/14 04:26:15;;;;;;;5.18;1.00;;;8.80;99.90;;;;;;7333984;32;20103;-54
2023/03/14 04:30:17;;;;;;;5.10;1.10;;;8.70;99.90;;;;;;7331791;32;20130;-55
2023/03/14 04:34:19;;;;;;;6.18;1.15;;;8.80;99.90;;;;;;7334828;32;20222;-54
2023/03/14 04:38:20;;;;;;;3.83;0.47;;;8.80;99.90;;;;;;7336762;32;20137;-54
2023/03/14 04:42:22;;;;;;;2.90;0.40;;;8.70;99.90;;;;;;7333127;32;20514;-55
2023/03/14 04:46:24;;;;;;;2.42;0.40;;;8.50;99.90;;;;;;7340805;32;20609;-54
2023/03/14 04:50:26;;;;;;;2.28;0.35;;;8.50;99.90;;;;;;7340526;32;20668;-54
2023/03/14 04:54:27;;;;;;;2.87;0.32;;;8.40;99.90;;;;;;7333583;32;20481;-55
2023/03/14 04:58:29;;;;;;;1.12;0.40;;;8.40;99.90;;;;;;7345605;32;20202;-54
2023/03/14 05:02:31;;;;;;;0.77;0.40;;;8.30;99.90;;;;;;7337053;32;20134;-55
2023/03/14 05:06:32;;;;;;;0.77;0.30;;;8.40;99.90;;;;;;7336115;32;20243;-57
2023/03/14 05:10:34;;;;;;;0.95;0.50;;;8.30;99.90;;;;;;7339292;32;20654;-55
2023/03/14 05:14:36;;;;;;;1.52;0.65;;;8.40;99.90;;;;;;7334594;32;20142;-55
2023/03/14 05:18:38;;;;;;;4.07;1.37;;;8.30;99.90;;;;;;7337119;32;20171;-56
2023/03/14 05:22:39;;;;;;;5.55;1.85;;;8.30;99.90;;;;;;7333723;32;20210;-56
2023/03/14 05:26:41;;;;;;;8.75;2.72;;;8.30;99.90;;;;;;7345051;32;20187;-56
2023/03/14 05:30:43;;;;;;;8.52;3.05;;;8.30;99.90;;;;;;7342980;32;20108;-56
2023/03/14 05:34:44;;;;;;;8.38;2.70;;;8.30;99.90;;;;;;7332034;32;20706;-55
2023/03/14 05:38:46;;;;;;;7.47;2.45;;;8.50;99.90;;;;;;7344339;32;20751;-55
2023/03/14 05:42:48;;;;;;;10.77;2.05;;;8.60;99.90;;;;;;7335685;32;20538;-56
2023/03/14 05:46:50;;;;;;;6.70;1.52;;;8.60;99.90;;;;;;7326258;32;20228;-56
2023/03/14 05:50:56;;;;;;;3.65;1.37;;;8.50;99.90;;;;;;7339600;32;20164;-56
2023/03/14 05:54:58;;;;;;;6.70;1.10;;;8.60;99.90;;;;;;7337578;32;20171;-57
2023/03/14 05:59:02;;;;;;;4.45;1.00;;;8.60;99.90;;;;;;7338500;32;20194;-56
2023/03/14 06:03:03;;;;;;;7.10;1.00;;;8.60;99.90;;;;;;7339877;32;20130;-55
2023/03/14 06:07:08;;;;;;;5.00;0.90;;;8.60;99.90;;;;;;7335342;32;20186;-58
2023/03/14 06:11:10;;;;;;;3.50;0.50;;;8.70;99.90;;;;;;7343670;32;20224;-58
2023/03/14 06:15:11;;;;;;;1.65;0.20;;;8.70;99.90;;;;;;7333815;32;20143;-59
2023/03/14 06:19:13;;;;;;;2.05;0.30;;;8.70;99.90;;;;;;7336517;32;20269;-58
2023/03/14 06:23:15;;;;;;;1.58;0.45;;;8.80;99.90;;;;;;7330147;32;20540;-57
2023/03/14 06:27:17;;;;;;;1.98;0.20;;;8.90;99.90;;;;;;7333276;32;20111;-56
2023/03/14 06:31:18;;;;;;;3.15;0.30;;;8.80;99.90;;;;;;7341305;32;20489;-57
2023/03/14 06:35:20;;;;;;;0.70;0.20;;;8.90;99.90;;;;;;7327321;32;20202;-57
2023/03/14 06:39:22;;;;;;;0.40;0.10;;;8.90;99.90;;;;;;7330164;32;20712;-56
2023/03/14 06:43:24;;;;;;;0.62;0.17;;;8.90;99.90;;;;;;7339676;32;20139;-57
2023/03/14 06:47:25;;;;;;;1.37;0.17;;;9.10;99.90;;;;;;7334628;32;20177;-56
2023/03/14 06:51:27;;;;;;;1.25;0.20;;;9.10;99.90;;;;;;7336661;32;20120;-57
2023/03/14 06:55:29;;;;;;;0.45;0.20;;;9.10;99.90;;;;;;7338692;32;20107;-56
2023/03/14 06:59:30;;;;;;;0.88;0.25;;;9.20;99.90;;;;;;7338567;32;20210;-56
2023/03/14 07:03:32;;;;;;;0.82;0.10;;;9.20;99.90;;;;;;7334961;32;20103;-57
2023/03/14 07:07:34;;;;;;;1.08;0.20;;;9.10;99.90;;;;;;7339094;32;20103;-56
2023/03/14 07:11:36;;;;;;;0.40;0.10;;;9.30;99.90;;;;;;7332440;32;20516;-56
2023/03/14 07:15:37;;;;;;;0.85;0.13;;;9.20;99.90;;;;;;7337093;32;20100;-56
2023/03/14 07:19:39;;;;;;;0.32;0.10;;;9.30;99.90;;;;;;7342203;32;20270;-57
2023/03/14 07:23:41;;;;;;;0.50;0.20;;;9.30;99.90;;;;;;7332329;32;20186;-56
2023/03/14 07:27:44;;;;;;;0.95;0.20;;;9.30;99.90;;;;;;7334002;32;20125;-56
2023/03/14 07:31:46;;;;;;;0.30;0.20;;;9.40;99.90;;;;;;7328755;32;20104;-57
2023/03/14 07:35:48;;;;;;;1.05;0.20;;;9.30;99.90;;;;;;7330844;32;20235;-58
2023/03/14 07:39:50;;;;;;;0.75;0.30;;;9.40;99.90;;;;;;7331967;32;20139;-56
2023/03/14 07:43:52;;;;;;;0.28;0.15;;;9.50;99.90;;;;;;7332764;32;20103;-56
2023/03/14 07:47:57;;;;;;;0.45;0.32;;;9.50;99.90;;;;;;7330572;32;20246;-56
2023/03/14 07:51:58;;;;;;;0.70;0.37;;;9.60;99.90;;;;;;7330161;32;20341;-56
2023/03/14 07:56:00;;;;;;;2.05;0.40;;;9.60;99.90;;;;;;7335399;32;20230;-56
2023/03/14 08:00:05;;;;;;;1.27;0.40;;;9.60;99.90;;;;;;7332161;32;20135;-56
2023/03/14 08:04:06;;;;;;;5.40;0.50;;;9.70;99.90;;;;;;7335599;32;20891;-56
2023/03/14 08:08:08;;;;;;;1.15;0.35;;;9.80;99.90;;;;;;7341126;32;20119;-56
2023/03/14 08:12:10;;;;;;;0.80;0.43;;;10.10;99.90;;;;;;7335122;32;20676;-56
2023/03/14 08:16:12;;;;;;;0.85;0.40;;;10.20;99.90;;;;;;7340413;32;20246;-56
2023/03/14 08:20:14;;;;;;;1.05;0.30;;;10.20;99.90;;;;;;7331711;32;20124;-56
2023/03/14 08:24:16;;;;;;;1.08;0.43;;;10.20;99.90;;;;;;7338581;32;20188;-56
2023/03/14 08:28:18;;;;;;;0.90;0.50;;;10.20;99.90;;;;;;7336848;32;20145;-57
2023/03/14 08:32:20;;;;;;;2.87;0.50;;;10.20;99.90;;;;;;7332485;32;20222;-57
2023/03/14 08:36:22;;;;;;;0.60;0.40;;;10.30;99.90;;;;;;7339814;32;20736;-57
2023/03/14 08:40:24;;;;;;;0.90;0.57;;;10.30;99.90;;;;;;7339803;32;20121;-56
2023/03/14 08:44:26;;;;;;;1.40;0.70;;;10.30;99.90;;;;;;7329891;32;20099;-57
2023/03/14 08:48:29;;;;;;;5.85;0.70;;;10.40;99.90;;;;;;7336828;32;20210;-56
2023/03/14 08:52:31;;;;;;;1.02;0.60;;;10.40;99.90;;;;;;7334841;32;20191;-56
2023/03/14 08:56:33;;;;;;;2.85;1.10;;;10.40;99.90;;;;;;7336804;32;20201;-56
2023/03/14 09:00:35;;;;;;;1.30;0.90;;;10.30;99.90;;;;;;7334946;32;20134;-56
2023/03/14 09:04:36;;;;;;;1.33;0.80;;;10.20;99.90;;;;;;7340505;32;20158;-57
2023/03/14 09:08:38;;;;;;;1.20;0.55;;;10.10;99.90;;;;;;7337982;32;20202;-57
2023/03/14 09:12:40;;;;;;;1.70;0.75;;;10.00;99.90;;;;;;7332062;32;20182;-56
2023/03/14 09:16:42;;;;;;;1.62;0.70;;;10.10;99.90;;;;;;7336485;32;20099;-56
2023/03/14 09:20:44;;;;;;;0.70;0.50;;;10.10;99.90;;;;;;7338194;32;20108;-56
2023/03/14 09:24:45;;;;;;;3.05;0.75;;;10.10;99.90;;;;;;7341124;32;20238;-56
2023/03/14 09:28:47;;;;;;;0.70;0.20;;;10.00;99.90;;;;;;7347983;32;20523;-57
2023/03/14 09:32:49;;;;;;;0.15;0.10;;;9.10;99.90;;;;;;7339124;32;20141;-57
2023/03/14 09:36:50;;;;;;;0.43;0.20;;;8.80;99.90;;;;;;7334963;32;20194;-56
2023/03/14 09:40:54;;;;;;;0.93;0.20;;;8.50;99.90;;;;;;7338478;32;20121;-56
2023/03/14 09:45:07;;;;;;;1.08;0.47;;;8.40;99.90;;;;;;7336572;32;20234;-56
2023/03/14 09:49:21;;;;;;;0.73;0.32;;;8.30;99.90;;;;;;7343909;32;20115;-56
2023/03/14 09:53:28;;;;;;;1.65;0.50;;;8.30;99.90;;;;;;7339090;32;20198;-56
2023/03/14 09:57:33;;;;;;;1.12;0.47;;;8.10;99.90;;;;;;7340585;32;20121;-56
2023/03/14 10:01:35;;;;;;;1.62;0.60;;;8.20;99.90;;;;;;7327233;32;20136;-57
2023/03/14 10:05:38;;;;;;;2.20;0.68;;;8.20;99.90;;;;;;7336639;32;20126;-58
2023/03/14 10:09:40;;;;;;;1.67;0.70;;;8.20;99.90;;;;;;7340677;32;20138;-56
2023/03/14 10:14:11;;;;;;;1.83;1.00;;;8.10;99.90;;;;;;7333626;32;20187;-55
2023/03/14 10:18:14;;;;;;;2.35;1.40;;;8.20;99.90;;;;;;7337231;32;20119;-56
2023/03/14 10:22:17;;;;;;;2.78;2.00;;;8.20;99.90;;;;;;7331799;32;20099;-56
2023/03/14 10:26:26;;;;;;;1.87;1.55;;;8.10;99.90;;;;;;7332985;32;20122;-57
2023/03/14 10:30:45;;;;;;;2.37;1.50;;;8.20;99.90;;;;;;7329914;32;20890;-57
2023/03/14 10:35:22;;;;;;;2.00;1.45;;;8.10;99.90;;;;;;7330986;32;20207;-56
2023/03/14 10:39:28;;;;;;;2.50;1.67;;;8.20;99.90;;;;;;7339120;32;20325;-56
2023/03/14 10:43:35;;;;;;;2.00;1.50;;;8.10;99.90;;;;;;7332529;32;20512;-56
2023/03/14 10:47:48;;;;;;;4.80;3.90;;;7.90;99.90;;;;;;7336069;32;20576;-56
2023/03/14 10:51:51;;;;;;;8.85;5.05;;;7.80;99.90;;;;;;7331810;32;20415;-56
2023/03/14 10:55:52;;;;;;;2.35;1.37;;;7.60;99.90;;;;;;7336043;32;20100;-56
2023/03/14 10:59:58;;;;;;;3.28;1.17;;;7.50;99.90;;;;;;7335799;32;20177;-57
2023/03/14 11:04:37;;;;;;;2.50;0.70;;;7.50;99.90;;;;;;7335710;32;20245;-56
2023/03/14 11:08:57;;;;;;;2.97;1.23;;;7.50;99.90;;;;;;7333836;32;20123;-57
2023/03/14 11:13:15;;;;;;;2.33;0.90;;;7.50;99.90;;;;;;7338162;32;20489;-57
2023/03/14 11:17:45;;;;;;;4.18;0.73;;;6.80;99.90;;;;;;7331682;32;20178;-57
2023/03/14 11:21:56;;;;;;;3.67;0.82;;;6.90;99.90;;;;;;7340442;32;20122;-57
2023/03/14 11:26:26;;;;;;;4.07;0.77;;;7.10;99.90;;;;;;7339995;32;20095;-57
2023/03/14 11:30:49;;;;;;;1.83;0.70;;;7.40;99.90;;;;;;7329500;32;20634;-58
2023/03/14 11:34:53;;;;;;;3.53;0.85;;;7.50;99.90;;;;;;7333057;32;20216;-57
2023/03/14 11:38:59;;;;;;;5.25;1.20;;;7.60;99.90;;;;;;7342343;32;20124;-57
2023/03/14 11:43:34;;;;;;;5.47;1.77;;;7.50;99.90;;;;;;7334661;32;20265;-56
2023/03/14 11:47:41;;;;;;;3.05;1.35;;;7.40;99.90;;;;;;7330736;32;20248;-56
2023/03/14 11:51:47;;;;;;;2.93;1.17;;;7.40;99.90;;;;;;7336099;32;20125;-54
2023/03/14 11:55:51;;;;;;;3.92;1.23;;;7.40;99.90;;;;;;7332250;32;20121;-56
2023/03/14 11:59:56;;;;;;;2.65;1.20;;;7.20;99.90;;;;;;7337604;32;20121;-57
2023/03/14 12:04:12;;;;;;;5.37;1.15;;;7.40;99.90;;;;;;7336502;32;20099;-56
2023/03/14 12:08:23;;;;;;;2.10;0.62;;;7.50;99.90;;;;;;7333192;32;20114;-55
2023/03/14 12:12:28;;;;;;;3.53;0.80;;;7.30;99.90;;;;;;7330040;32;20288;-56
2023/03/14 12:16:37;;;;;;;3.55;1.10;;;7.20;99.90;;;;;;7334520;32;20096;-56
2023/03/14 12:20:55;;;;;;;3.35;0.98;;;7.20;99.90;;;;;;7329450;32;20802;-56
2023/03/14 12:25:13;;;;;;;3.15;1.40;;;7.10;99.90;;;;;;7335360;32;23334;-57
2023/03/14 12:29:16;;;;;;;6.97;1.17;;;7.40;99.90;;;;;;7337025;32;20103;-56
2023/03/14 12:33:18;;;;;;;5.57;0.73;;;8.50;99.90;;;;;;7330450;32;20095;-57
2023/03/14 12:37:35;;;;;;;7.53;1.60;;;8.60;99.90;;;;;;7335517;32;20313;-56
2023/03/14 12:41:46;;;;;;;10.32;2.30;;;8.30;99.90;;;;;;7337953;32;20107;-56
2023/03/14 12:46:07;;;;;;;6.47;2.78;;;8.20;99.90;;;;;;7330073;32;20127;-56
2023/03/14 12:50:20;;;;;;;4.93;1.67;;;8.40;99.90;;;;;;7325439;32;20127;-57
2023/03/14 12:54:24;;;;;;;6.78;2.00;;;8.20;99.90;;;;;;7333895;32;20247;-56
2023/03/14 12:58:43;;;;;;;6.43;1.48;;;7.60;99.90;;;;;;7332021;32;20129;-57
2023/03/14 13:02:48;;;;;;;5.87;1.00;;;7.30;99.90;;;;;;7339049;32;20099;-57
2023/03/14 13:06:56;;;;;;;7.97;1.45;;;7.30;99.90;;;;;;7333978;32;20167;-56
2023/03/14 13:10:59;;;;;;;9.85;2.30;;;7.30;99.90;;;;;;7340506;32;20700;-57
2023/03/14 13:15:03;;;;;;;10.90;2.55;;;7.30;99.90;;;;;;7343538;32;20133;-57
2023/03/14 13:19:21;;;;;;;8.43;2.00;;;7.70;99.90;;;;;;7337873;32;20517;-57
2023/03/14 13:23:29;;;;;;;10.57;2.00;;;7.80;99.90;;;;;;7340251;32;20159;-56
2023/03/14 13:27:34;;;;;;;17.15;2.20;;;8.10;99.90;;;;;;7338722;32;20161;-56
2023/03/14 13:31:35;;;;;;;6.45;1.40;;;8.00;99.90;;;;;;7341265;32;20104;-58
2023/03/14 13:35:54;;;;;;;11.95;1.73;;;7.40;99.90;;;;;;7339259;32;20119;-57
2023/03/14 13:39:57;;;;;;;15.02;2.75;;;7.00;99.90;;;;;;7334003;32;20552;-56
2023/03/14 13:44:06;;;;;;;15.27;1.65;;;6.60;99.90;;;;;;7340720;32;20301;-57
2023/03/14 13:48:12;;;;;;;14.50;2.65;;;6.30;99.90;;;;;;7341323;32;20202;-56
2023/03/14 13:52:29;;;;;;;15.70;2.40;;;6.40;99.90;;;;;;7335342;32;20133;-56
2023/03/14 13:56:32;;;;;;;11.57;2.20;;;6.80;99.90;;;;;;7345288;32;20127;-56
2023/03/14 14:00:34;;;;;;;17.17;2.80;;;7.30;99.90;;;;;;7334981;32;20108;-56
2023/03/14 14:04:37;;;;;;;10.27;2.03;;;7.80;99.90;;;;;;7333266;32;20220;-56
2023/03/14 14:08:41;;;;;;;11.38;2.12;;;9.70;99.90;;;;;;7338700;32;20131;-57
2023/03/14 14:12:51;;;;;;;13.45;2.33;;;11.40;99.90;;;;;;7337134;32;20604;-57
2023/03/14 14:16:54;;;;;;;14.00;2.20;;;13.40;99.90;;;;;;7334290;32;20213;-57
2023/03/14 14:20:56;;;;;;;10.38;2.30;;;14.40;99.90;;;;;;7340518;32;20178;-57
2023/03/14 14:24:59;;;;;;;14.02;2.10;;;14.80;99.90;;;;;;7339944;32;20285;-58
2023/03/14 14:29:05;;;;;;;11.70;2.60;;;14.00;99.90;;;;;;7340164;32;20476;-58
2023/03/14 14:33:19;;;;;;;11.20;1.83;;;12.60;99.90;;;;;;7337581;32;20258;-57
2023/03/14 14:37:27;;;;;;;7.40;1.70;;;12.20;99.90;;;;;;7333510;32;20312;-56
2023/03/14 14:41:31;;;;;;;11.68;1.67;;;10.80;99.90;;;;;;7340154;32;20269;-56
2023/03/14 14:45:34;;;;;;;10.27;1.80;;;10.00;99.90;;;;;;7330983;32;20253;-56
2023/03/14 14:49:37;;;;;;;15.15;2.80;;;9.50;99.90;;;;;;7336088;32;20115;-56
2023/03/14 14:53:42;;;;;;;11.45;1.67;;;9.00;99.90;;;;;;7335807;32;20834;-56
2023/03/14 14:57:53;;;;;;;5.87;1.00;;;8.80;99.90;;;;;;7333790;32;20664;-56
2023/03/14 15:01:59;;;;;;;7.93;1.62;;;8.40;99.90;;;;;;7335889;32;20687;-56
2023/03/14 15:06:03;;;;;;;7.55;1.15;;;8.20;99.90;;;;;;7334862;32;20674;-56
2023/03/14 15:10:05;;;;;;;6.43;1.42;;;8.40;99.90;;;;;;7335261;32;20257;-57
2023/03/14 15:14:06;;;;;;;5.12;0.70;;;8.30;99.90;;;;;;7335345;32;20099;-56
2023/03/14 15:18:18;;;;;;;7.72;1.08;;;8.20;99.90;;;;;;7336974;32;20103;-56
2023/03/14 15:22:20;;;;;;;9.23;1.20;;;8.40;99.90;;;;;;7335520;32;20096;-56
2023/03/14 15:26:24;;;;;;;7.65;1.33;;;8.40;99.90;;;;;;7331410;32;20157;-56
2023/03/14 15:30:26;;;;;;;6.78;1.12;;;8.30;99.90;;;;;;7332591;32;20833;-56
2023/03/14 15:34:27;;;;;;;7.90;1.12;;;8.20;99.90;;;;;;7328334;32;20251;-57
2023/03/14 15:38:29;;;;;;;5.25;1.15;;;8.10;99.90;;;;;;7331626;32;20194;-57
2023/03/14 15:42:31;;;;;;;8.77;1.37;;;8.10;99.90;;;;;;7337815;32;20178;-56
2023/03/14 15:46:33;;;;;;;7.20;1.45;;;7.80;99.90;;;;;;7342191;32;20206;-56
2023/03/14 15:50:34;;;;;;;9.52;1.37;;;7.60;99.90;;;;;;7335941;32;20121;-56
2023/03/14 15:54:36;;;;;;;6.25;1.20;;;7.50;99.90;;;;;;7326032;32;20187;-57
2023/03/14 15:58:40;;;;;;;5.28;1.00;;;7.30;99.90;;;;;;7332197;32;20103;-57
2023/03/14 16:02:41;;;;;;;8.25;0.98;;;7.40;99.90;;;;;;7336962;32;20363;-55
2023/03/14 16:06:44;;;;;;;4.87;1.02;;;7.40;99.90;;;;;;7331893;32;20121;-56
2023/03/14 16:10:46;;;;;;;4.53;1.10;;;7.10;99.90;;;;;;7331961;32;20872;-56
2023/03/14 16:14:48;;;;;;;10.65;1.30;;;7.20;99.90;;;;;;7332975;32;20595;-57
2023/03/14 16:18:50;;;;;;;7.87;1.05;;;7.20;99.90;;;;;;7337254;32;20231;-56
2023/03/14 16:22:51;;;;;;;8.63;1.37;;;7.20;99.90;;;;;;7340570;32;20228;-57
2023/03/14 16:26:53;;;;;;;6.30;1.05;;;6.90;99.90;;;;;;7342931;32;20123;-57
2023/03/14 16:31:06;;;;;;;8.63;1.10;;;6.90;99.90;;;;;;7343834;32;20245;-55
2023/03/14 16:35:08;;;;;;;9.38;1.20;;;6.90;99.90;;;;;;7341881;32;20175;-56
2023/03/14 16:39:10;;;;;;;6.35;1.10;;;7.00;99.90;;;;;;7335024;32;20224;-57
2023/03/14 16:43:11;;;;;;;7.25;1.02;;;7.00;99.90;;;;;;7341742;32;20258;-56
2023/03/14 16:47:17;;;;;;;7.68;1.00;;;6.90;99.90;;;;;;7343296;32;20186;-56
2023/03/14 16:51:19;;;;;;;10.93;1.08;;;6.90;99.90;;;;;;7335954;32;20168;-57
2023/03/14 16:55:21;;;;;;;7.20;1.00;;;6.80;99.90;;;;;;7340359;32;20487;-56
2023/03/14 16:59:24;;;;;;;7.85;1.08;;;6.70;99.90;;;;;;7331524;32;20111;-56
2023/03/14 17:03:26;;;;;;;4.30;1.00;;;6.60;99.90;;;;;;7342405;32;20107;-55
2023/03/14 17:07:28;;;;;;;5.40;0.77;;;6.50;99.90;;;;;;7335810;32;20111;-56
2023/03/14 17:11:34;;;;;;;9.00;1.48;;;6.40;99.90;;;;;;7338924;32;20107;-56
2023/03/14 17:15:36;;;;;;;8.77;1.02;;;6.30;99.90;;;;;;7337930;32;20649;-56
2023/03/14 17:19:38;;;;;;;5.18;0.88;;;6.20;99.90;;;;;;7348370;32;20501;-57
2023/03/14 17:23:39;;;;;;;4.97;1.20;;;6.10;99.90;;;;;;7341337;32;20135;-57
2023/03/14 17:27:41;;;;;;;5.82;1.17;;;6.20;99.90;;;;;;7327873;32;20216;-56
2023/03/14 17:31:46;;;;;;;7.35;1.23;;;6.10;99.90;;;;;;7334391;32;20224;-55
2023/03/14 17:35:48;;;;;;;6.05;1.00;;;6.20;99.90;;;;;;7332051;32;20117;-56
2023/03/14 17:39:49;;;;;;;9.05;1.40;;;6.10;99.90;;;;;;7332684;32;20442;-56
2023/03/14 17:43:51;;;;;;;9.35;1.83;;;5.90;99.90;;;;;;7337683;32;20123;-56
2023/03/14 17:47:53;;;;;;;6.30;1.40;;;5.90;99.90;;;;;;7337773;32;20099;-55
2023/03/14 17:51:54;;;;;;;10.07;1.42;;;6.10;99.90;;;;;;7336877;32;20134;-55
2023/03/14 17:55:57;;;;;;;8.05;1.15;;;6.00;99.90;;;;;;7335687;32;20122;-55
2023/03/14 17:59:58;;;;;;;6.72;1.48;;;5.90;99.90;;;;;;7336524;32;20104;-55
2023/03/14 18:04:00;;;;;;;12.85;2.78;;;5.70;99.90;;;;;;7331916;32;20528;-55
2023/03/14 18:08:02;;;;;;;8.20;1.48;;;5.80;99.90;;;;;;7334775;32;20198;-55
2023/03/14 18:12:04;;;;;;;8.43;2.50;;;5.60;99.90;;;;;;7336146;32;20103;-55
2023/03/14 18:16:15;;;;;;;9.82;1.27;;;5.60;99.90;;;;;;7333444;32;20142;-56
2023/03/14 18:20:17;;;;;;;4.18;0.82;;;5.50;99.90;;;;;;7333044;32;20577;-57
2023/03/14 18:24:20;;;;;;;6.90;1.20;;;5.40;99.90;;;;;;7334128;32;20554;-56
2023/03/14 18:28:22;;;;;;;5.43;1.45;;;5.40;99.90;;;;;;7334696;32;20660;-56
2023/03/14 18:32:23;;;;;;;10.27;1.35;;;5.40;99.90;;;;;;7338494;32;20127;-56
2023/03/14 18:36:25;;;;;;;6.78;1.25;;;5.30;99.90;;;;;;7341187;32;20114;-55
2023/03/14 18:40:27;;;;;;;7.45;1.42;;;5.20;99.90;;;;;;7340795;32;20092;-55
2023/03/14 18:44:29;;;;;;;8.18;2.05;;;5.20;99.90;;;;;;7341562;32;20615;-56
2023/03/14 18:48:31;;;;;;;8.80;2.00;;;5.20;99.90;;;;;;7334580;32;20544;-55
2023/03/14 18:52:33;;;;;;;8.93;3.75;;;5.30;99.90;;;;;;7334698;32;20799;-54
2023/03/14 18:56:35;;;;;;;7.90;2.30;;;5.20;99.90;;;;;;7336092;32;20129;-55
2023/03/14 19:00:37;;;;;;;9.73;1.83;;;5.20;99.90;;;;;;7338507;32;20198;-55
2023/03/14 19:04:39;;;;;;;12.68;3.75;;;5.10;99.90;;;;;;7339498;32;20254;-54
2023/03/14 19:08:41;;;;;;;6.72;1.95;;;5.10;99.90;;;;;;7337880;32;20456;-58
2023/03/14 19:12:43;;;;;;;10.73;2.50;;;5.00;99.90;;;;;;7332399;32;20166;-55
2023/03/14 19:16:44;;;;;;;6.72;2.12;;;5.00;99.90;;;;;;7337405;32;20111;-56
2023/03/14 19:20:56;;;;;;;8.65;1.77;;;5.10;99.90;;;;;;7334767;32;20195;-55
2023/03/14 19:24:58;;;;;;;11.15;1.83;;;5.00;99.90;;;;;;7334787;32;20107;-57
2023/03/14 19:29:00;;;;;;;10.30;1.67;;;4.90;99.90;;;;;;7339915;32;20282;-55
2023/03/14 19:33:02;;;;;;;9.98;1.10;;;4.90;99.90;;;;;;7333994;32;20200;-56
2023/03/14 19:37:04;;;;;;;9.77;1.77;;;4.90;99.90;;;;;;7332605;32;20148;-55
2023/03/14 19:41:05;;;;;;;8.52;3.28;;;4.80;99.90;;;;;;7339510;32;20131;-56
2023/03/14 19:45:09;;;;;;;13.18;3.67;;;4.70;99.90;;;;;;7334927;32;20103;-56
2023/03/14 19:49:11;;;;;;;9.02;2.65;;;4.70;99.90;;;;;;7342957;32;20439;-57
2023/03/14 19:53:12;;;;;;;12.82;4.93;;;4.80;99.90;;;;;;7336203;32;20095;-55
2023/03/14 19:57:16;;;;;;;10.18;3.00;;;4.70;99.90;;;;;;7327516;32;20186;-56
2023/03/14 20:01:18;;;;;;;10.77;2.12;;;4.70;99.90;;;;;;7333104;32;20604;-57
2023/03/14 20:05:22;;;;;;;7.03;3.00;;;4.60;99.90;;;;;;7332505;32;20627;-57
2023/03/14 20:09:23;;;;;;;10.02;2.05;;;4.50;99.90;;;;;;7325675;32;20108;-56
2023/03/14 20:13:25;;;;;;;10.55;2.65;;;4.40;99.90;;;;;;7332658;32;20248;-56
2023/03/14 20:17:27;;;;;;;7.20;1.75;;;4.40;99.90;;;;;;7339037;32;20100;-55
2023/03/14 20:21:30;;;;;;;12.25;2.17;;;4.30;99.90;;;;;;7331900;32;20100;-55
2023/03/14 20:25:34;;;;;;;8.43;1.73;;;4.30;99.90;;;;;;7335218;32;20222;-55
2023/03/14 20:29:36;;;;;;;8.02;1.62;;;4.30;99.90;;;;;;7334054;32;20119;-55
2023/03/14 20:33:37;;;;;;;8.52;1.58;;;4.10;99.90;;;;;;7328505;32;20099;-57
2023/03/14 20:37:40;;;;;;;10.90;4.05;;;4.00;99.90;;;;;;7331518;32;20157;-55
2023/03/14 20:41:42;;;;;;;11.88;3.00;;;3.90;99.90;;;;;;7331568;32;20707;-56
2023/03/14 20:45:50;;;;;;;10.73;2.67;;;3.80;99.90;;;;;;7332728;32;20129;-56
2023/03/14 20:49:52;;;;;;;17.05;7.47;;;3.60;99.90;;;;;;7334128;32;20248;-56
2023/03/14 20:53:54;;;;;;;13.52;5.57;;;3.50;99.90;;;;;;7335825;32;20126;-56
2023/03/14 20:57:56;;;;;;;8.85;3.25;;;3.40;99.90;;;;;;7336098;32;20207;-56
2023/03/14 21:01:57;;;;;;;8.95;2.53;;;3.30;99.90;;;;;;7329860;32;20501;-56
2023/03/14 21:05:59;;;;;;;13.80;3.83;;;3.10;99.90;;;;;;7333395;32;20129;-56
2023/03/14 21:10:02;;;;;;;10.65;2.30;;;2.90;99.90;;;;;;7331037;32;20179;-54
2023/03/14 21:14:03;;;;;;;11.88;2.75;;;2.80;99.90;;;;;;7336319;32;20095;-56
2023/03/14 21:18:05;;;;;;;9.25;2.70;;;2.80;99.90;;;;;;7337786;32;20126;-55
2023/03/14 21:22:07;;;;;;;12.05;3.10;;;2.60;99.90;;;;;;7341610;32;20158;-56